createdAt,value
2018-03-20T00:00:05.989Z,0.00
2018-03-20T00:01:05.955Z,0.00
2018-03-20T00:02:05.924Z,0.00
2018-03-20T00:03:05.900Z,0.00
2018-03-20T00:04:05.867Z,0.00
2018-03-20T00:05:05.847Z,0.00
2018-03-20T00:06:05.809Z,0.00
2018-03-20T00:07:05.785Z,0.00
2018-03-20T00:08:05.753Z,0.00
2018-03-20T00:09:05.725Z,0.00
2018-03-20T00:10:05.699Z,0.00
2018-03-20T00:11:05.673Z,0.00
2018-03-20T00:12:05.642Z,0.00
2018-03-20T00:13:05.609Z,0.00
2018-03-20T00:14:05.574Z,0.00
2018-03-20T00:15:05.573Z,0.00
2018-03-20T00:16:05.517Z,0.00
2018-03-20T00:17:05.500Z,0.00
2018-03-20T00:18:05.467Z,0.00
2018-03-20T00:19:05.436Z,0.00
2018-03-20T00:20:05.410Z,0.00
2018-03-20T00:21:05.374Z,0.00
2018-03-20T00:22:05.341Z,0.00
2018-03-20T00:23:05.322Z,0.00
2018-03-20T00:24:05.298Z,0.00
2018-03-20T00:25:05.262Z,0.00
2018-03-20T00:26:05.236Z,0.00
2018-03-20T00:27:05.202Z,0.00
2018-03-20T00:28:05.173Z,0.00
2018-03-20T00:29:05.148Z,0.00
2018-03-20T00:30:05.114Z,0.00
2018-03-20T00:31:05.087Z,0.00
2018-03-20T00:32:05.059Z,0.00
2018-03-20T00:33:05.023Z,0.00
2018-03-20T00:34:05.000Z,0.00
2018-03-20T00:35:04.967Z,0.00
2018-03-20T00:36:04.945Z,0.00
2018-03-20T00:37:04.905Z,0.00
2018-03-20T00:38:04.881Z,0.00
2018-03-20T00:39:04.847Z,0.00
2018-03-20T00:40:04.826Z,0.00
2018-03-20T00:41:04.796Z,0.00
2018-03-20T00:42:04.755Z,0.00
2018-03-20T00:43:04.731Z,0.00
2018-03-20T00:44:04.702Z,0.00
2018-03-20T00:45:04.680Z,0.00
2018-03-20T00:46:04.645Z,0.00
2018-03-20T00:47:04.610Z,0.00
2018-03-20T00:48:04.590Z,0.00
2018-03-20T00:49:04.550Z,0.00
2018-03-20T00:50:04.523Z,0.00
2018-03-20T00:51:04.500Z,0.00
2018-03-20T00:52:04.479Z,0.00
2018-03-20T00:53:04.444Z,0.00
2018-03-20T00:54:04.406Z,0.00
2018-03-20T00:55:04.387Z,0.00
2018-03-20T00:56:04.360Z,0.00
2018-03-20T00:57:04.317Z,0.00
2018-03-20T00:58:04.296Z,0.00
2018-03-20T00:59:04.262Z,0.00
2018-03-20T01:00:04.234Z,0.00
2018-03-20T01:01:04.210Z,0.00
2018-03-20T01:02:04.175Z,0.00
2018-03-20T01:03:04.149Z,0.00
2018-03-20T01:04:04.126Z,0.00
2018-03-20T01:05:04.088Z,0.00
2018-03-20T01:06:04.055Z,0.00
2018-03-20T01:07:04.027Z,0.00
2018-03-20T01:08:04.002Z,0.00
2018-03-20T01:09:03.970Z,0.00
2018-03-20T01:10:03.942Z,0.00
2018-03-20T01:11:03.911Z,0.00
2018-03-20T01:12:03.877Z,0.00
2018-03-20T01:13:03.857Z,0.00
2018-03-20T01:14:03.821Z,0.00
2018-03-20T01:15:03.795Z,0.00
2018-03-20T01:16:03.772Z,0.00
2018-03-20T01:17:03.732Z,0.00
2018-03-20T01:18:03.707Z,0.00
2018-03-20T01:19:03.680Z,0.00
2018-03-20T01:20:03.655Z,0.00
2018-03-20T01:21:03.627Z,0.00
2018-03-20T01:22:03.588Z,0.00
2018-03-20T01:23:03.562Z,0.00
2018-03-20T01:24:03.534Z,0.00
2018-03-20T01:25:03.502Z,0.00
2018-03-20T01:26:03.470Z,0.00
2018-03-20T01:27:03.442Z,0.00
2018-03-20T01:28:03.416Z,0.00
2018-03-20T01:29:03.383Z,0.00
2018-03-20T01:30:03.360Z,0.00
2018-03-20T01:31:03.352Z,0.00
2018-03-20T01:32:03.297Z,0.00
2018-03-20T01:33:03.273Z,0.00
2018-03-20T01:34:03.235Z,0.00
2018-03-20T01:35:03.213Z,0.00
2018-03-20T01:36:03.182Z,0.00
2018-03-20T01:37:03.147Z,0.00
2018-03-20T01:38:03.125Z,0.00
2018-03-20T01:39:03.087Z,0.00
2018-03-20T01:40:03.073Z,0.00
2018-03-20T01:41:03.032Z,0.00
2018-03-20T01:42:03.005Z,0.00
2018-03-20T01:43:02.970Z,0.00
2018-03-20T01:44:02.939Z,0.00
2018-03-20T01:45:02.909Z,0.00
2018-03-20T01:46:02.885Z,0.00
2018-03-20T01:47:02.856Z,0.00
2018-03-20T01:48:02.825Z,0.00
2018-03-20T01:49:02.813Z,0.00
2018-03-20T01:50:02.776Z,0.00
2018-03-20T01:51:02.739Z,0.00
2018-03-20T01:52:02.721Z,0.00
2018-03-20T01:53:02.677Z,0.00
2018-03-20T01:54:02.646Z,0.00
2018-03-20T01:55:02.623Z,0.00
2018-03-20T01:56:02.587Z,0.00
2018-03-20T01:57:02.571Z,0.00
2018-03-20T01:58:02.533Z,0.00
2018-03-20T01:59:02.547Z,0.00
2018-03-20T02:00:02.481Z,0.00
2018-03-20T02:01:02.438Z,0.00
2018-03-20T02:02:02.410Z,0.00
2018-03-20T02:03:02.384Z,0.00
2018-03-20T02:04:02.361Z,0.00
2018-03-20T02:05:02.326Z,0.00
2018-03-20T02:06:02.300Z,0.00
2018-03-20T02:07:02.270Z,0.00
2018-03-20T02:08:02.248Z,0.00
2018-03-20T02:09:02.211Z,0.00
2018-03-20T02:10:02.178Z,0.00
2018-03-20T02:11:02.150Z,0.00
2018-03-20T02:12:02.119Z,0.00
2018-03-20T02:13:02.102Z,0.00
2018-03-20T02:14:02.061Z,0.00
2018-03-20T02:15:02.041Z,0.00
2018-03-20T02:16:02.006Z,0.00
2018-03-20T02:17:01.972Z,0.00
2018-03-20T02:18:01.939Z,0.00
2018-03-20T02:19:01.918Z,0.00
2018-03-20T02:20:01.889Z,0.00
2018-03-20T02:21:01.861Z,0.00
2018-03-20T02:22:01.831Z,0.00
2018-03-20T02:23:01.801Z,0.00
2018-03-20T02:24:01.767Z,0.00
2018-03-20T02:25:01.748Z,0.00
2018-03-20T02:26:01.708Z,0.00
2018-03-20T02:27:01.690Z,0.00
2018-03-20T02:28:01.658Z,0.00
2018-03-20T02:29:01.627Z,0.00
2018-03-20T02:30:01.598Z,0.00
2018-03-20T02:31:01.564Z,0.00
2018-03-20T02:32:01.543Z,0.00
2018-03-20T02:33:01.511Z,0.00
2018-03-20T02:34:01.477Z,0.00
2018-03-20T02:35:01.452Z,0.00
2018-03-20T02:36:01.417Z,0.00
2018-03-20T02:37:01.396Z,0.00
2018-03-20T02:38:01.373Z,0.00
2018-03-20T02:39:01.331Z,0.00
2018-03-20T02:40:01.309Z,0.00
2018-03-20T02:41:01.281Z,0.00
2018-03-20T02:42:01.245Z,0.00
2018-03-20T02:43:01.231Z,0.00
2018-03-20T02:44:01.193Z,0.00
2018-03-20T02:45:01.164Z,0.00
2018-03-20T02:46:01.134Z,0.00
2018-03-20T02:47:01.103Z,0.00
2018-03-20T02:48:01.074Z,0.00
2018-03-20T02:49:01.048Z,0.00
2018-03-20T02:50:01.017Z,0.00
2018-03-20T02:51:01.008Z,0.00
2018-03-20T02:52:00.963Z,0.00
2018-03-20T02:53:00.931Z,0.00
2018-03-20T02:54:00.906Z,0.00
2018-03-20T02:55:00.881Z,0.00
2018-03-20T02:56:00.841Z,0.00
2018-03-20T02:57:00.814Z,0.00
2018-03-20T02:58:00.787Z,0.00
2018-03-20T02:59:00.751Z,0.00
2018-03-20T03:00:00.732Z,0.00
2018-03-20T03:01:00.698Z,0.00
2018-03-20T03:02:00.664Z,0.00
2018-03-20T03:03:00.644Z,0.00
2018-03-20T03:04:00.628Z,0.00
2018-03-20T03:05:00.587Z,0.00
2018-03-20T03:06:00.561Z,0.00
2018-03-20T03:07:00.528Z,0.00
2018-03-20T03:08:00.496Z,0.00
2018-03-20T03:09:00.473Z,0.00
2018-03-20T03:10:00.434Z,0.00
2018-03-20T03:11:00.412Z,0.00
2018-03-20T03:12:00.429Z,0.00
2018-03-20T03:13:00.347Z,0.00
2018-03-20T03:14:00.327Z,0.00
2018-03-20T03:15:00.290Z,0.00
2018-03-20T03:16:00.282Z,0.00
2018-03-20T03:17:00.239Z,0.00
2018-03-20T03:18:00.208Z,0.00
2018-03-20T03:19:00.172Z,0.00
2018-03-20T03:20:00.154Z,0.00
2018-03-20T03:21:00.129Z,0.00
2018-03-20T03:22:00.092Z,0.00
2018-03-20T03:23:00.071Z,0.00
2018-03-20T03:24:00.030Z,0.00
2018-03-20T03:25:00.007Z,0.00
2018-03-20T03:25:59.975Z,0.00
2018-03-20T03:26:59.956Z,0.00
2018-03-20T03:27:59.922Z,0.00
2018-03-20T03:28:59.886Z,0.00
2018-03-20T03:29:59.870Z,0.00
2018-03-20T03:30:59.840Z,0.00
2018-03-20T03:31:59.799Z,0.00
2018-03-20T03:32:59.776Z,0.00
2018-03-20T03:33:59.748Z,0.00
2018-03-20T03:34:59.721Z,0.00
2018-03-20T03:35:59.696Z,0.00
2018-03-20T03:36:59.658Z,0.00
2018-03-20T03:37:59.630Z,0.00
2018-03-20T03:38:59.604Z,0.00
2018-03-20T03:39:59.568Z,0.00
2018-03-20T03:40:59.550Z,0.00
2018-03-20T03:41:59.520Z,0.00
2018-03-20T03:42:59.492Z,0.00
2018-03-20T03:43:59.466Z,0.00
2018-03-20T03:44:59.424Z,0.00
2018-03-20T03:45:59.402Z,0.00
2018-03-20T03:46:59.368Z,0.00
2018-03-20T03:47:59.345Z,0.00
2018-03-20T03:48:59.316Z,0.00
2018-03-20T03:49:59.280Z,0.00
2018-03-20T03:50:59.251Z,0.00
2018-03-20T03:51:59.222Z,0.00
2018-03-20T03:52:59.197Z,0.00
2018-03-20T03:53:59.164Z,0.00
2018-03-20T03:54:59.134Z,0.00
2018-03-20T03:55:59.108Z,0.00
2018-03-20T03:56:59.078Z,0.00
2018-03-20T03:57:59.048Z,0.00
2018-03-20T03:58:59.019Z,0.00
2018-03-20T03:59:58.992Z,0.00
2018-03-20T04:00:58.965Z,0.00
2018-03-20T04:01:58.937Z,0.00
2018-03-20T04:02:58.905Z,0.00
2018-03-20T04:03:58.870Z,0.00
2018-03-20T04:04:58.847Z,0.00
2018-03-20T04:05:58.825Z,0.00
2018-03-20T04:06:58.796Z,0.00
2018-03-20T04:07:58.761Z,0.00
2018-03-20T04:08:58.724Z,0.00
2018-03-20T04:09:58.691Z,0.00
2018-03-20T04:10:58.679Z,0.00
2018-03-20T04:11:58.634Z,0.00
2018-03-20T04:12:58.618Z,0.00
2018-03-20T04:13:58.580Z,0.00
2018-03-20T04:14:58.552Z,0.00
2018-03-20T04:15:58.529Z,0.00
2018-03-20T04:16:58.493Z,0.00
2018-03-20T04:17:58.462Z,0.00
2018-03-20T04:18:58.437Z,0.00
2018-03-20T04:19:58.408Z,0.00
2018-03-20T04:20:58.375Z,0.00
2018-03-20T04:21:58.346Z,0.00
2018-03-20T04:22:58.326Z,0.00
2018-03-20T04:23:58.285Z,0.00
2018-03-20T04:24:58.265Z,0.00
2018-03-20T04:25:58.231Z,0.00
2018-03-20T04:26:58.193Z,0.00
2018-03-20T04:27:58.174Z,0.00
2018-03-20T04:28:58.134Z,0.00
2018-03-20T04:29:58.109Z,0.00
2018-03-20T04:30:58.084Z,0.00
2018-03-20T04:31:58.052Z,0.00
2018-03-20T04:32:58.027Z,0.00
2018-03-20T04:33:57.998Z,0.00
2018-03-20T04:34:57.963Z,0.00
2018-03-20T04:35:57.934Z,0.00
2018-03-20T04:36:57.914Z,0.00
2018-03-20T04:37:57.876Z,0.00
2018-03-20T04:38:57.850Z,0.00
2018-03-20T04:39:57.813Z,0.00
2018-03-20T04:40:57.786Z,0.00
2018-03-20T04:41:57.761Z,0.00
2018-03-20T04:42:57.725Z,0.00
2018-03-20T04:43:57.703Z,0.00
2018-03-20T04:44:57.669Z,0.00
2018-03-20T04:45:57.644Z,0.00
2018-03-20T04:46:57.620Z,0.00
2018-03-20T04:47:57.579Z,0.00
2018-03-20T04:48:57.556Z,0.00
2018-03-20T04:49:57.526Z,0.00
2018-03-20T04:50:57.488Z,0.00
2018-03-20T04:51:57.462Z,0.00
2018-03-20T04:52:57.435Z,0.00
2018-03-20T04:53:57.398Z,0.00
2018-03-20T04:54:57.375Z,0.00
2018-03-20T04:55:57.344Z,0.00
2018-03-20T04:56:57.312Z,0.00
2018-03-20T04:57:57.289Z,0.00
2018-03-20T04:58:57.258Z,0.00
2018-03-20T04:59:57.248Z,0.00
2018-03-20T05:00:57.236Z,0.00
2018-03-20T05:01:57.160Z,0.00
2018-03-20T05:02:57.139Z,0.00
2018-03-20T05:03:57.110Z,0.00
2018-03-20T05:04:57.074Z,0.00
2018-03-20T05:05:57.059Z,0.00
2018-03-20T05:06:57.013Z,0.00
2018-03-20T05:07:56.988Z,0.00
2018-03-20T05:08:56.965Z,0.00
2018-03-20T05:09:56.924Z,0.00
2018-03-20T05:10:56.909Z,0.00
2018-03-20T05:11:56.876Z,0.00
2018-03-20T05:12:56.836Z,0.00
2018-03-20T05:13:56.817Z,0.00
2018-03-20T05:14:56.786Z,4.00
2018-03-20T05:15:56.762Z,4.00
2018-03-20T05:16:56.718Z,0.00
2018-03-20T05:17:56.695Z,4.00
2018-03-20T05:18:56.666Z,4.00
2018-03-20T05:19:56.641Z,4.00
2018-03-20T05:20:56.614Z,4.00
2018-03-20T05:21:56.583Z,4.00
2018-03-20T05:22:56.552Z,8.00
2018-03-20T05:23:56.523Z,8.00
2018-03-20T05:24:56.495Z,8.00
2018-03-20T05:25:56.464Z,12.00
2018-03-20T05:26:56.434Z,12.00
2018-03-20T05:27:56.398Z,16.00
2018-03-20T05:28:56.416Z,16.00
2018-03-20T05:29:56.353Z,24.00
2018-03-20T05:30:56.322Z,20.00
2018-03-20T05:31:56.289Z,20.00
2018-03-20T05:32:56.256Z,24.00
2018-03-20T05:33:56.223Z,28.00
2018-03-20T05:34:56.206Z,32.00
2018-03-20T05:35:56.168Z,36.00
2018-03-20T05:36:56.141Z,36.00
2018-03-20T05:37:56.116Z,44.00
2018-03-20T05:38:56.079Z,48.00
2018-03-20T05:39:56.051Z,48.00
2018-03-20T05:40:56.022Z,44.00
2018-03-20T05:41:56.006Z,44.00
2018-03-20T05:42:55.961Z,44.00
2018-03-20T05:43:55.939Z,56.00
2018-03-20T05:44:55.904Z,64.00
2018-03-20T05:45:55.879Z,68.00
2018-03-20T05:46:55.854Z,80.00
2018-03-20T05:47:55.814Z,100.00
2018-03-20T05:48:55.789Z,104.00
2018-03-20T05:49:55.760Z,120.00
2018-03-20T05:50:55.730Z,128.00
2018-03-20T05:51:55.703Z,128.00
2018-03-20T05:52:55.676Z,128.00
2018-03-20T05:53:55.640Z,136.00
2018-03-20T05:54:55.619Z,148.00
2018-03-20T05:55:55.583Z,172.00
2018-03-20T05:56:55.557Z,192.00
2018-03-20T05:57:55.528Z,204.00
2018-03-20T05:58:55.496Z,220.00
2018-03-20T05:59:55.481Z,248.00
2018-03-20T06:00:55.434Z,260.00
2018-03-20T06:01:55.403Z,264.00
2018-03-20T06:02:55.381Z,248.00
2018-03-20T06:03:55.353Z,236.00
2018-03-20T06:04:55.322Z,220.00
2018-03-20T06:05:55.286Z,216.00
2018-03-20T06:06:55.273Z,248.00
2018-03-20T06:07:55.237Z,240.00
2018-03-20T06:08:55.202Z,268.00
2018-03-20T06:09:55.171Z,252.00
2018-03-20T06:10:55.145Z,228.00
2018-03-20T06:11:55.121Z,216.00
2018-03-20T06:12:55.083Z,224.00
2018-03-20T06:13:55.060Z,244.00
2018-03-20T06:14:55.030Z,264.00
2018-03-20T06:15:54.999Z,276.00
2018-03-20T06:16:54.977Z,308.00
2018-03-20T06:17:54.939Z,344.00
2018-03-20T06:18:54.910Z,368.00
2018-03-20T06:19:54.879Z,376.00
2018-03-20T06:20:54.857Z,376.00
2018-03-20T06:21:54.837Z,340.00
2018-03-20T06:22:54.800Z,404.00
2018-03-20T06:23:54.763Z,484.00
2018-03-20T06:24:54.745Z,508.00
2018-03-20T06:25:54.706Z,472.00
2018-03-20T06:26:54.683Z,480.00
2018-03-20T06:27:54.654Z,536.00
2018-03-20T06:28:54.618Z,668.00
2018-03-20T06:29:54.588Z,700.00
2018-03-20T06:30:54.557Z,744.00
2018-03-20T06:31:54.533Z,716.00
2018-03-20T06:32:54.508Z,748.00
2018-03-20T06:33:54.469Z,820.00
2018-03-20T06:34:54.447Z,992.00
2018-03-20T06:35:54.405Z,972.00
2018-03-20T06:36:54.386Z,964.00
2018-03-20T06:37:54.348Z,968.00
2018-03-20T06:38:54.328Z,1012.00
2018-03-20T06:39:54.297Z,884.00
2018-03-20T06:40:54.268Z,888.00
2018-03-20T06:41:54.236Z,916.00
2018-03-20T06:42:54.215Z,1000.00
2018-03-20T06:43:54.180Z,1184.00
2018-03-20T06:44:54.147Z,1268.00
2018-03-20T06:45:54.119Z,1280.00
2018-03-20T06:46:54.099Z,1412.00
2018-03-20T06:47:54.069Z,1376.00
2018-03-20T06:48:54.033Z,1256.00
2018-03-20T06:49:54.010Z,1112.00
2018-03-20T06:50:53.970Z,944.00
2018-03-20T06:51:53.956Z,1060.00
2018-03-20T06:52:53.914Z,1008.00
2018-03-20T06:53:53.885Z,956.00
2018-03-20T06:54:53.857Z,960.00
2018-03-20T06:55:53.826Z,1012.00
2018-03-20T06:56:53.811Z,1132.00
2018-03-20T06:57:53.779Z,1156.00
2018-03-20T06:58:53.744Z,1408.00
2018-03-20T06:59:53.721Z,1456.00
2018-03-20T07:00:53.683Z,1480.00
2018-03-20T07:01:53.665Z,1428.00
2018-03-20T07:02:53.627Z,1360.00
2018-03-20T07:03:53.595Z,1588.00
2018-03-20T07:04:53.574Z,1940.00
2018-03-20T07:05:53.537Z,2264.00
2018-03-20T07:06:53.542Z,2328.00
2018-03-20T07:07:53.485Z,2228.00
2018-03-20T07:08:53.459Z,2168.00
2018-03-20T07:09:53.428Z,2056.00
2018-03-20T07:10:53.394Z,2684.00
2018-03-20T07:11:53.373Z,2584.00
2018-03-20T07:12:53.345Z,2368.00
2018-03-20T07:13:53.306Z,2304.00
2018-03-20T07:14:53.301Z,2956.00
2018-03-20T07:15:53.251Z,2720.00
2018-03-20T07:16:53.229Z,2208.00
2018-03-20T07:17:53.205Z,2156.00
2018-03-20T07:18:53.164Z,2000.00
2018-03-20T07:19:53.134Z,2160.00
2018-03-20T07:20:53.102Z,2368.00
2018-03-20T07:21:53.074Z,2560.00
2018-03-20T07:22:53.102Z,2096.00
2018-03-20T07:23:53.026Z,1912.00
2018-03-20T07:24:52.990Z,1768.00
2018-03-20T07:25:52.974Z,1736.00
2018-03-20T07:26:52.934Z,1836.00
2018-03-20T07:27:52.907Z,1808.00
2018-03-20T07:28:52.889Z,1708.00
2018-03-20T07:29:52.847Z,1728.00
2018-03-20T07:30:52.829Z,2004.00
2018-03-20T07:31:52.800Z,2068.00
2018-03-20T07:32:52.762Z,1804.00
2018-03-20T07:33:52.740Z,1904.00
2018-03-20T07:34:52.753Z,1880.00
2018-03-20T07:35:52.718Z,2556.00
2018-03-20T07:36:52.652Z,2780.00
2018-03-20T07:37:52.620Z,1836.00
2018-03-20T07:38:52.596Z,1768.00
2018-03-20T07:39:52.618Z,2256.00
2018-03-20T07:40:52.538Z,2496.00
2018-03-20T07:41:52.505Z,2596.00
2018-03-20T07:42:52.476Z,3604.00
2018-03-20T07:43:52.451Z,3224.00
2018-03-20T07:44:52.419Z,2676.00
2018-03-20T07:45:52.389Z,3048.00
2018-03-20T07:46:52.366Z,2816.00
2018-03-20T07:47:52.333Z,2644.00
2018-03-20T07:48:52.325Z,3372.00
2018-03-20T07:49:52.354Z,3800.00
2018-03-20T07:50:52.264Z,4232.00
2018-03-20T07:51:52.224Z,3212.00
2018-03-20T07:52:52.260Z,3988.00
2018-03-20T07:53:52.218Z,5164.00
2018-03-20T07:54:52.196Z,4444.00
2018-03-20T07:55:52.104Z,4996.00
2018-03-20T07:56:52.077Z,3388.00
2018-03-20T07:57:52.052Z,3276.00
2018-03-20T07:58:52.108Z,3432.00
2018-03-20T07:59:51.989Z,3140.00
2018-03-20T08:00:51.968Z,3064.00
2018-03-20T08:01:52.036Z,2660.00
2018-03-20T08:02:51.923Z,2780.00
2018-03-20T08:03:51.874Z,2732.00
2018-03-20T08:04:52.014Z,3532.00
2018-03-20T08:05:51.826Z,2764.00
2018-03-20T08:06:51.900Z,2700.00
2018-03-20T08:07:51.791Z,3364.00
2018-03-20T08:08:51.738Z,3712.00
2018-03-20T08:09:51.705Z,3112.00
2018-03-20T08:10:51.680Z,2860.00
2018-03-20T08:11:51.642Z,2732.00
2018-03-20T08:12:51.624Z,3064.00
2018-03-20T08:13:51.591Z,3244.00
2018-03-20T08:14:51.561Z,2964.00
2018-03-20T08:15:51.541Z,3940.00
2018-03-20T08:16:51.507Z,2780.00
2018-03-20T08:17:51.518Z,3212.00
2018-03-20T08:18:51.449Z,3708.00
2018-03-20T08:19:51.427Z,3532.00
2018-03-20T08:20:51.397Z,3788.00
2018-03-20T08:21:51.361Z,5472.00
2018-03-20T08:22:51.337Z,4456.00
2018-03-20T08:23:51.317Z,5008.00
2018-03-20T08:24:51.286Z,6416.00
2018-03-20T08:25:51.249Z,6092.00
2018-03-20T08:26:51.284Z,5424.00
2018-03-20T08:27:51.195Z,6632.00
2018-03-20T08:28:51.241Z,5832.00
2018-03-20T08:29:51.146Z,7440.00
2018-03-20T08:30:51.166Z,6340.00
2018-03-20T08:31:51.168Z,5572.00
2018-03-20T08:32:51.062Z,5724.00
2018-03-20T08:33:51.028Z,4952.00
2018-03-20T08:34:51.054Z,5776.00
2018-03-20T08:35:51.005Z,5160.00
2018-03-20T08:36:50.949Z,5352.00
2018-03-20T08:37:51.145Z,5056.00
2018-03-20T08:38:50.888Z,5764.00
2018-03-20T08:39:51.008Z,4336.00
2018-03-20T08:40:50.894Z,4868.00
2018-03-20T08:41:50.865Z,6328.00
2018-03-20T08:42:50.791Z,4788.00
2018-03-20T08:43:50.751Z,6116.00
2018-03-20T08:44:50.782Z,7676.00
2018-03-20T08:45:50.771Z,7352.00
2018-03-20T08:46:50.688Z,5316.00
2018-03-20T08:47:50.680Z,5736.00
2018-03-20T08:48:50.672Z,7352.00
2018-03-20T08:49:50.639Z,8024.00
2018-03-20T08:50:50.661Z,7032.00
2018-03-20T08:51:50.587Z,8916.00
2018-03-20T08:52:50.529Z,7512.00
2018-03-20T08:53:50.480Z,6236.00
2018-03-20T08:54:50.532Z,7020.00
2018-03-20T08:55:50.465Z,7528.00
2018-03-20T08:56:50.483Z,5152.00
2018-03-20T08:57:50.409Z,5072.00
2018-03-20T08:58:50.403Z,5100.00
2018-03-20T08:59:50.311Z,5624.00
2018-03-20T09:00:50.287Z,7492.00
2018-03-20T09:01:50.252Z,6840.00
2018-03-20T09:02:50.234Z,8964.00
2018-03-20T09:03:50.254Z,8460.00
2018-03-20T09:04:50.169Z,9524.00
2018-03-20T09:05:50.214Z,5324.00
2018-03-20T09:06:50.185Z,4236.00
2018-03-20T09:07:50.146Z,3716.00
2018-03-20T09:08:50.111Z,3188.00
2018-03-20T09:09:50.086Z,3600.00
2018-03-20T09:10:50.072Z,5444.00
2018-03-20T09:11:49.978Z,6560.00
2018-03-20T09:12:49.972Z,6376.00
2018-03-20T09:13:50.012Z,6184.00
2018-03-20T09:14:49.893Z,6248.00
2018-03-20T09:15:49.938Z,4716.00
2018-03-20T09:16:49.843Z,4020.00
2018-03-20T09:17:49.816Z,4108.00
2018-03-20T09:18:49.786Z,4768.00
2018-03-20T09:19:49.751Z,3228.00
2018-03-20T09:20:49.733Z,2824.00
2018-03-20T09:21:49.699Z,4104.00
2018-03-20T09:22:49.682Z,4772.00
2018-03-20T09:23:49.652Z,4700.00
2018-03-20T09:24:49.686Z,3876.00
2018-03-20T09:25:49.647Z,4580.00
2018-03-20T09:26:49.619Z,3932.00
2018-03-20T09:27:49.571Z,3580.00
2018-03-20T09:28:49.618Z,4348.00
2018-03-20T09:29:49.575Z,7360.00
2018-03-20T09:30:49.488Z,5560.00
2018-03-20T09:31:49.420Z,3636.00
2018-03-20T09:32:49.404Z,4756.00
2018-03-20T09:33:49.403Z,4640.00
2018-03-20T09:34:49.431Z,5192.00
2018-03-20T09:35:49.538Z,6440.00
2018-03-20T09:36:49.436Z,4188.00
2018-03-20T09:37:49.277Z,2752.00
2018-03-20T09:38:49.304Z,2692.00
2018-03-20T09:39:49.212Z,2156.00
2018-03-20T09:40:49.288Z,2080.00
2018-03-20T09:41:49.151Z,2276.00
2018-03-20T09:42:49.241Z,2064.00
2018-03-20T09:43:49.108Z,2004.00
2018-03-20T09:44:49.068Z,2040.00
2018-03-20T09:45:49.045Z,2328.00
2018-03-20T09:46:49.009Z,2040.00
2018-03-20T09:47:49.023Z,2100.00
2018-03-20T09:48:48.955Z,2340.00
2018-03-20T09:49:48.962Z,2336.00
2018-03-20T09:50:48.902Z,2340.00
2018-03-20T09:51:48.895Z,2332.00
2018-03-20T09:52:48.857Z,2340.00
2018-03-20T09:53:48.870Z,2340.00
2018-03-20T09:54:48.792Z,2364.00
2018-03-20T09:55:48.768Z,2360.00
2018-03-20T09:56:48.789Z,2368.00
2018-03-20T09:57:48.708Z,2368.00
2018-03-20T09:58:48.684Z,2376.00
2018-03-20T09:59:48.680Z,2352.00
2018-03-20T10:00:48.629Z,2420.00
2018-03-20T10:01:48.659Z,2480.00
2018-03-20T10:02:48.574Z,2456.00
2018-03-20T10:03:48.543Z,2620.00
2018-03-20T10:04:48.504Z,2672.00
2018-03-20T10:05:48.479Z,2688.00
2018-03-20T10:06:48.537Z,2612.00
2018-03-20T10:07:48.454Z,2692.00
2018-03-20T10:08:48.426Z,2696.00
2018-03-20T10:09:48.427Z,2576.00
2018-03-20T10:10:48.352Z,2920.00
2018-03-20T10:11:48.318Z,3060.00
2018-03-20T10:12:48.291Z,2992.00
2018-03-20T10:13:48.292Z,3188.00
2018-03-20T10:14:48.290Z,3276.00
2018-03-20T10:15:48.229Z,3348.00
2018-03-20T10:16:48.214Z,2640.00
2018-03-20T10:17:48.199Z,2608.00
2018-03-20T10:18:48.152Z,2948.00
2018-03-20T10:19:48.098Z,3132.00
2018-03-20T10:20:48.070Z,2788.00
2018-03-20T10:21:48.037Z,2484.00
2018-03-20T10:22:48.022Z,2484.00
2018-03-20T10:23:48.048Z,2356.00
2018-03-20T10:24:47.961Z,2680.00
2018-03-20T10:25:47.975Z,2644.00
2018-03-20T10:26:47.901Z,2496.00
2018-03-20T10:27:47.871Z,2732.00
2018-03-20T10:28:47.844Z,3500.00
2018-03-20T10:29:47.848Z,2776.00
2018-03-20T10:30:47.791Z,2480.00
2018-03-20T10:31:47.797Z,2380.00
2018-03-20T10:32:47.729Z,2372.00
2018-03-20T10:33:47.715Z,2392.00
2018-03-20T10:34:47.682Z,2376.00
2018-03-20T10:35:47.657Z,2332.00
2018-03-20T10:36:47.626Z,2348.00
2018-03-20T10:37:47.595Z,2348.00
2018-03-20T10:38:47.572Z,2332.00
2018-03-20T10:39:47.537Z,2336.00
2018-03-20T10:40:47.516Z,2332.00
2018-03-20T10:41:47.488Z,2332.00
2018-03-20T10:42:47.448Z,2344.00
2018-03-20T10:43:47.481Z,2356.00
2018-03-20T10:44:47.416Z,2364.00
2018-03-20T10:45:47.367Z,2376.00
2018-03-20T10:46:47.348Z,2392.00
2018-03-20T10:47:47.323Z,2416.00
2018-03-20T10:48:47.293Z,2432.00
2018-03-20T10:49:47.266Z,2452.00
2018-03-20T10:50:47.243Z,2516.00
2018-03-20T10:51:47.204Z,2152.00
2018-03-20T10:52:47.183Z,2412.00
2018-03-20T10:53:47.153Z,2428.00
2018-03-20T10:54:47.124Z,2392.00
2018-03-20T10:55:47.095Z,2328.00
2018-03-20T10:56:47.067Z,2388.00
2018-03-20T10:57:47.042Z,2392.00
2018-03-20T10:58:47.011Z,2408.00
2018-03-20T10:59:46.985Z,2412.00
2018-03-20T11:00:46.956Z,2416.00
2018-03-20T11:01:46.930Z,2388.00
2018-03-20T11:02:46.904Z,2388.00
2018-03-20T11:03:46.954Z,2404.00
2018-03-20T11:04:46.856Z,2408.00
2018-03-20T11:05:46.844Z,2160.00
2018-03-20T11:06:46.800Z,2408.00
2018-03-20T11:07:46.763Z,2408.00
2018-03-20T11:08:46.743Z,2404.00
2018-03-20T11:09:46.713Z,2388.00
2018-03-20T11:10:46.678Z,2404.00
2018-03-20T11:11:46.649Z,2404.00
2018-03-20T11:12:46.652Z,2392.00
2018-03-20T11:13:46.648Z,2380.00
2018-03-20T11:14:46.622Z,2396.00
2018-03-20T11:15:46.598Z,2404.00
2018-03-20T11:16:46.565Z,2408.00
2018-03-20T11:17:46.484Z,2400.00
2018-03-20T11:18:46.466Z,2392.00
2018-03-20T11:19:46.484Z,2388.00
2018-03-20T11:20:46.402Z,2140.00
2018-03-20T11:21:46.376Z,2400.00
2018-03-20T11:22:46.379Z,2396.00
2018-03-20T11:23:46.384Z,2388.00
2018-03-20T11:24:46.293Z,2408.00
2018-03-20T11:25:46.266Z,2412.00
2018-03-20T11:26:46.274Z,2360.00
2018-03-20T11:27:46.212Z,2420.00
2018-03-20T11:28:46.205Z,2432.00
2018-03-20T11:29:46.153Z,2436.00
2018-03-20T11:30:46.178Z,2432.00
2018-03-20T11:31:46.097Z,2436.00
2018-03-20T11:32:46.078Z,2428.00
2018-03-20T11:33:46.111Z,2428.00
2018-03-20T11:34:46.013Z,2424.00
2018-03-20T11:35:45.990Z,2428.00
2018-03-20T11:36:45.967Z,2436.00
2018-03-20T11:37:45.951Z,2452.00
2018-03-20T11:38:45.913Z,2452.00
2018-03-20T11:39:45.975Z,2448.00
2018-03-20T11:40:45.895Z,2460.00
2018-03-20T11:41:45.877Z,2472.00
2018-03-20T11:42:45.833Z,2480.00
2018-03-20T11:43:45.774Z,2464.00
2018-03-20T11:44:45.748Z,2468.00
2018-03-20T11:45:45.766Z,2476.00
2018-03-20T11:46:45.687Z,2480.00
2018-03-20T11:47:45.660Z,2472.00
2018-03-20T11:48:45.717Z,2488.00
2018-03-20T11:49:45.643Z,2496.00
2018-03-20T11:50:45.582Z,2480.00
2018-03-20T11:51:45.558Z,2472.00
2018-03-20T11:52:45.563Z,2476.00
2018-03-20T11:53:45.518Z,2488.00
2018-03-20T11:54:45.507Z,2500.00
2018-03-20T11:55:45.452Z,2504.00
2018-03-20T11:56:45.448Z,2512.00
2018-03-20T11:57:45.431Z,2524.00
2018-03-20T11:58:45.423Z,2520.00
2018-03-20T11:59:45.369Z,2516.00
2018-03-20T12:00:45.312Z,2524.00
2018-03-20T12:01:45.280Z,2540.00
2018-03-20T12:02:45.246Z,2544.00
2018-03-20T12:03:45.229Z,2568.00
2018-03-20T12:04:45.195Z,2564.00
2018-03-20T12:05:45.173Z,2560.00
2018-03-20T12:06:45.133Z,2568.00
2018-03-20T12:07:45.111Z,2576.00
2018-03-20T12:08:45.089Z,2580.00
2018-03-20T12:09:45.112Z,2588.00
2018-03-20T12:10:45.026Z,2588.00
2018-03-20T12:11:45.002Z,2612.00
2018-03-20T12:12:45.062Z,2616.00
2018-03-20T12:13:44.946Z,2616.00
2018-03-20T12:14:44.946Z,2620.00
2018-03-20T12:15:44.894Z,2632.00
2018-03-20T12:16:44.917Z,2636.00
2018-03-20T12:17:44.840Z,2652.00
2018-03-20T12:18:44.851Z,2660.00
2018-03-20T12:19:44.780Z,2668.00
2018-03-20T12:20:44.755Z,2660.00
2018-03-20T12:21:44.790Z,2664.00
2018-03-20T12:22:44.703Z,2664.00
2018-03-20T12:23:44.680Z,2676.00
2018-03-20T12:24:44.642Z,2684.00
2018-03-20T12:25:44.621Z,2688.00
2018-03-20T12:26:44.632Z,2704.00
2018-03-20T12:27:44.563Z,2696.00
2018-03-20T12:28:44.593Z,2696.00
2018-03-20T12:29:44.512Z,2704.00
2018-03-20T12:30:44.485Z,2724.00
2018-03-20T12:31:44.525Z,2720.00
2018-03-20T12:32:44.469Z,2740.00
2018-03-20T12:33:44.461Z,2744.00
2018-03-20T12:34:44.398Z,2744.00
2018-03-20T12:35:45.381Z,2760.00
2018-03-20T12:36:44.422Z,2772.00
2018-03-20T12:37:44.342Z,2784.00